Time;durP1;ratioP1;P1;durP2;ratioP2;P2;SDS_P1;SDS_P2;PMS_P1;PMS_P2;Temp;Humidity;BMP_temperature;BMP_pressure;BME280_temperature;BME280_humidity;BME280_pressure;Samples;Min_cycle;Max_cycle;Signal;HPM_P1;HPM_P2
2023/01/09 00:01:21;;;;;;;1.02;1.02;;;;;;;;;;5080075;28;20031;-88
2023/01/09 00:03:46;;;;;;;1.33;0.90;;;;;;;;;;5082794;28;20468;-88
2023/01/09 00:06:12;;;;;;;4.28;1.55;;;;;;;;;;5084410;28;20024;-88
2023/01/09 00:08:38;;;;;;;0.80;0.73;;;;;;;;;;5081891;28;20028;-88
2023/01/09 00:11:04;;;;;;;0.77;0.77;;;;;;;;;;5085542;28;20020;-88
2023/01/09 00:13:29;;;;;;;1.38;0.82;;;;;;;;;;5080720;28;20485;-88
2023/01/09 00:15:54;;;;;;;1.38;1.02;;;;;;;;;;5080252;28;20024;-88
2023/01/09 00:18:20;;;;;;;2.03;1.70;;;;;;;;;;5087283;28;20025;-87
2023/01/09 00:20:45;;;;;;;1.10;1.02;;;;;;;;;;5121687;27;20063;-87
2023/01/09 00:23:11;;;;;;;0.90;0.73;;;;;;;;;;5078173;28;20440;-87
2023/01/09 00:25:36;;;;;;;2.60;1.25;;;;;;;;;;5084652;28;20027;-87
2023/01/09 00:28:02;;;;;;;1.67;1.45;;;;;;;;;;5076317;28;20067;-87
2023/01/09 00:30:28;;;;;;;1.67;1.17;;;;;;;;;;5084327;28;20029;-88
2023/01/09 00:32:54;;;;;;;1.50;1.10;;;;;;;;;;5088046;28;20081;-86
2023/01/09 00:35:22;;;;;;;1.48;1.38;;;;;;;;;;5075935;28;20070;-87
2023/01/09 00:37:48;;;;;;;0.45;0.45;;;;;;;;;;5078872;28;20086;-87
2023/01/09 00:40:16;;;;;;;2.10;1.60;;;;;;;;;;5078648;28;20024;-87
2023/01/09 00:42:44;;;;;;;1.90;1.73;;;;;;;;;;5077506;28;20028;-87
2023/01/09 00:45:15;;;;;;;6.10;2.22;;;;;;;;;;5084386;28;20029;-87
2023/01/09 00:47:47;;;;;;;2.00;1.60;;;;;;;;;;5078687;28;20475;-87
2023/01/09 00:50:17;;;;;;;2.50;2.15;;;;;;;;;;5075884;28;20035;-88
2023/01/09 00:52:44;;;;;;;1.33;1.15;;;;;;;;;;5083590;28;20024;-88
2023/01/09 00:55:10;;;;;;;1.40;1.15;;;;;;;;;;5088436;28;20028;-88
2023/01/09 00:57:35;;;;;;;0.98;0.98;;;;;;;;;;5074890;28;20373;-89
2023/01/09 01:00:02;;;;;;;0.80;0.70;;;;;;;;;;5079820;28;20024;-89
2023/01/09 01:02:27;;;;;;;2.25;0.73;;;;;;;;;;5088877;28;20028;-88
2023/01/09 01:07:41;;;;;;;2.00;1.38;;;;;;;;;;5079128;28;20085;-88
2023/01/09 01:10:27;;;;;;;4.40;1.55;;;;;;;;;;5082496;28;20411;-89
2023/01/09 01:12:52;;;;;;;0.50;0.50;;;;;;;;;;5087299;28;20114;-88
2023/01/09 01:15:19;;;;;;;1.75;1.30;;;;;;;;;;5076827;28;20047;-87
2023/01/09 01:17:44;;;;;;;0.50;0.50;;;;;;;;;;5082517;28;20040;-87
2023/01/09 01:20:14;;;;;;;0.47;0.47;;;;;;;;;;5079257;28;20157;-88
2023/01/09 01:22:46;;;;;;;1.60;1.48;;;;;;;;;;5084131;28;20020;-88
2023/01/09 01:25:13;;;;;;;0.88;0.77;;;;;;;;;;5076815;28;20040;-88
2023/01/09 01:27:39;;;;;;;0.57;0.57;;;;;;;;;;5077312;28;20464;-86
2023/01/09 01:30:06;;;;;;;1.10;1.00;;;;;;;;;;5104308;28;20032;-87
2023/01/09 01:32:32;;;;;;;1.70;1.20;;;;;;;;;;5102201;28;20028;-88
2023/01/09 01:34:57;;;;;;;1.70;1.27;;;;;;;;;;5087369;28;20378;-87
2023/01/09 01:37:23;;;;;;;2.78;1.02;;;;;;;;;;5122179;27;20073;-89
2023/01/09 01:39:50;;;;;;;0.55;0.55;;;;;;;;;;5078160;28;20052;-89
2023/01/09 01:42:15;;;;;;;1.20;1.15;;;;;;;;;;5088177;28;20030;-88
2023/01/09 01:45:15;;;;;;;4.22;1.33;;;;;;;;;;5083057;28;20024;-89
2023/01/09 01:48:05;;;;;;;0.90;0.90;;;;;;;;;;5041961;28;20060;-89
2023/01/09 01:50:42;;;;;;;1.98;1.50;;;;;;;;;;5101153;28;20463;-88
2023/01/09 01:53:25;;;;;;;4.68;1.15;;;;;;;;;;5084234;28;20016;-88
2023/01/09 01:56:03;;;;;;;2.45;1.33;;;;;;;;;;5078728;28;20100;-88
2023/01/09 01:58:29;;;;;;;2.33;1.73;;;;;;;;;;5088971;28;20577;-88
2023/01/09 02:00:54;;;;;;;0.55;0.55;;;;;;;;;;5096596;28;20016;-88
2023/01/09 02:03:24;;;;;;;0.77;0.77;;;;;;;;;;5100375;28;20420;-89
2023/01/09 02:05:49;;;;;;;1.23;0.98;;;;;;;;;;5101407;28;20024;-89
2023/01/09 02:08:16;;;;;;;1.23;1.05;;;;;;;;;;5100327;28;20107;-88
2023/01/09 02:10:41;;;;;;;1.77;1.20;;;;;;;;;;5084608;28;20047;-88
2023/01/09 02:13:08;;;;;;;0.43;0.43;;;;;;;;;;5098325;28;20032;-88
2023/01/09 02:15:52;;;;;;;1.77;1.50;;;;;;;;;;5087427;28;20020;-88
2023/01/09 02:18:26;;;;;;;0.77;0.77;;;;;;;;;;5083399;28;20110;-87
2023/01/09 02:21:26;;;;;;;1.27;1.17;;;;;;;;;;5088380;28;20467;-88
2023/01/09 02:24:19;;;;;;;1.10;1.08;;;;;;;;;;5063913;28;20122;-89
2023/01/09 02:27:00;;;;;;;1.00;0.73;;;;;;;;;;5106950;28;20463;-89
2023/01/09 02:30:11;;;;;;;2.40;0.82;;;;;;;;;;5107845;28;20499;-90
2023/01/09 02:32:42;;;;;;;4.15;2.28;;;;;;;;;;5089432;28;20027;-89
2023/01/09 02:35:36;;;;;;;2.63;1.95;;;;;;;;;;5087994;28;20426;-88
2023/01/09 02:38:25;;;;;;;0.80;0.77;;;;;;;;;;5084709;28;20085;-89
2023/01/09 02:41:26;;;;;;;0.93;0.90;;;;;;;;;;5084425;28;20031;-89
2023/01/09 02:44:32;;;;;;;3.55;1.02;;;;;;;;;;5067517;28;20546;-89
2023/01/09 02:47:18;;;;;;;1.25;1.15;;;;;;;;;;4997565;28;20112;-89
2023/01/09 02:49:59;;;;;;;2.13;1.88;;;;;;;;;;4996240;28;20462;-89
2023/01/09 02:53:02;;;;;;;2.88;2.00;;;;;;;;;;5068312;28;20043;-89
2023/01/09 02:55:55;;;;;;;1.52;1.27;;;;;;;;;;5087133;28;20089;-88
2023/01/09 02:58:21;;;;;;;1.45;1.00;;;;;;;;;;5082957;28;20073;-89
2023/01/09 03:00:55;;;;;;;4.85;1.63;;;;;;;;;;5092028;28;20028;-88
2023/01/09 03:03:33;;;;;;;1.48;1.20;;;;;;;;;;5108879;28;20039;-89
2023/01/09 03:06:09;;;;;;;1.33;0.88;;;;;;;;;;5103283;28;20082;-89
2023/01/09 03:08:50;;;;;;;0.98;0.90;;;;;;;;;;5089723;28;20483;-89
2023/01/09 03:11:15;;;;;;;0.95;0.95;;;;;;;;;;5088424;28;20062;-89
2023/01/09 03:13:53;;;;;;;0.98;0.93;;;;;;;;;;5122769;27;20024;-88
2023/01/09 03:16:43;;;;;;;4.68;1.83;;;;;;;;;;5088515;28;20020;-88
2023/01/09 03:19:12;;;;;;;1.52;1.42;;;;;;;;;;5078402;28;20051;-88
2023/01/09 03:21:39;;;;;;;2.20;1.77;;;;;;;;;;5099363;28;20039;-88
2023/01/09 03:24:05;;;;;;;2.53;1.50;;;;;;;;;;5124361;27;20268;-87
2023/01/09 03:26:31;;;;;;;1.45;1.35;;;;;;;;;;5085194;28;20856;-88
2023/01/09 03:28:57;;;;;;;0.65;0.65;;;;;;;;;;5105310;28;20046;-87
2023/01/09 03:31:23;;;;;;;1.65;1.45;;;;;;;;;;5103146;28;20058;-88
2023/01/09 03:33:51;;;;;;;1.73;1.63;;;;;;;;;;5089039;28;20019;-88
2023/01/09 03:36:19;;;;;;;1.75;0.80;;;;;;;;;;5083235;28;20483;-88
2023/01/09 03:38:44;;;;;;;2.10;1.77;;;;;;;;;;5083278;28;20103;-89
2023/01/09 03:41:18;;;;;;;2.30;1.23;;;;;;;;;;5084167;28;20443;-89
2023/01/09 03:43:44;;;;;;;3.47;2.53;;;;;;;;;;5086023;28;20115;-90
2023/01/09 03:46:10;;;;;;;1.42;1.00;;;;;;;;;;5087925;28;20112;-89
2023/01/09 03:48:36;;;;;;;1.60;1.50;;;;;;;;;;5088249;28;20159;-89
2023/01/09 03:51:01;;;;;;;0.70;0.70;;;;;;;;;;5084939;28;20071;-89
2023/01/09 03:53:28;;;;;;;2.22;1.50;;;;;;;;;;5086356;28;20077;-88
2023/01/09 03:55:55;;;;;;;2.83;1.48;;;;;;;;;;5083886;28;20021;-88
2023/01/09 03:58:23;;;;;;;1.13;0.98;;;;;;;;;;5089536;28;20514;-88
2023/01/09 04:00:49;;;;;;;1.45;1.23;;;;;;;;;;5088806;28;20023;-89
2023/01/09 04:03:16;;;;;;;1.08;0.98;;;;;;;;;;5087469;28;20072;-89
2023/01/09 04:05:43;;;;;;;1.48;1.13;;;;;;;;;;5104769;28;20031;-89
2023/01/09 04:08:08;;;;;;;1.35;1.05;;;;;;;;;;5083825;28;20030;-87
2023/01/09 04:10:33;;;;;;;2.67;1.92;;;;;;;;;;5086192;28;20036;-88
2023/01/09 04:12:59;;;;;;;2.38;1.67;;;;;;;;;;5084942;28;20028;-88
2023/01/09 04:15:24;;;;;;;1.67;1.17;;;;;;;;;;5088421;28;20024;-87
2023/01/09 04:17:50;;;;;;;1.73;1.33;;;;;;;;;;5085484;28;20024;-88
2023/01/09 04:20:15;;;;;;;1.08;1.08;;;;;;;;;;5089388;28;20047;-88
2023/01/09 04:22:41;;;;;;;4.10;1.42;;;;;;;;;;5088729;28;20525;-88
2023/01/09 04:25:07;;;;;;;3.85;1.92;;;;;;;;;;5081329;28;20050;-88
2023/01/09 04:27:32;;;;;;;3.13;2.17;;;;;;;;;;5102045;28;20032;-90
2023/01/09 04:30:00;;;;;;;3.53;1.80;;;;;;;;;;5083916;28;20078;-88
2023/01/09 04:32:26;;;;;;;2.92;1.58;;;;;;;;;;5084533;28;20034;-88
2023/01/09 04:34:53;;;;;;;3.03;1.77;;;;;;;;;;5099328;28;20050;-88
2023/01/09 04:37:19;;;;;;;3.80;2.05;;;;;;;;;;5087441;28;20028;-88
2023/01/09 04:39:44;;;;;;;4.53;1.83;;;;;;;;;;5091073;28;20026;-87
2023/01/09 04:42:16;;;;;;;0.93;0.93;;;;;;;;;;5123141;27;20023;-88
2023/01/09 04:44:41;;;;;;;3.90;2.28;;;;;;;;;;5098611;28;20921;-87
2023/01/09 04:47:07;;;;;;;6.90;2.40;;;;;;;;;;5087132;28;20023;-89
2023/01/09 04:49:33;;;;;;;1.52;1.35;;;;;;;;;;5081762;28;20085;-88
2023/01/09 04:51:58;;;;;;;1.45;1.35;;;;;;;;;;5099843;28;20032;-90
2023/01/09 04:54:24;;;;;;;2.80;2.15;;;;;;;;;;5117765;27;20435;-86
2023/01/09 04:56:49;;;;;;;3.78;2.03;;;;;;;;;;5102703;28;20020;-86
2023/01/09 04:59:15;;;;;;;1.15;1.05;;;;;;;;;;5103135;28;20368;-86
2023/01/09 05:01:40;;;;;;;2.35;1.85;;;;;;;;;;5100462;28;20028;-86
2023/01/09 05:04:06;;;;;;;3.03;1.58;;;;;;;;;;5080252;28;20031;-86
2023/01/09 05:06:33;;;;;;;1.10;0.93;;;;;;;;;;5079896;28;20064;-86
2023/01/09 05:08:58;;;;;;;0.47;0.47;;;;;;;;;;5104474;28;20817;-87
2023/01/09 05:11:24;;;;;;;1.25;0.90;;;;;;;;;;5087398;28;20038;-87
2023/01/09 05:13:50;;;;;;;1.23;1.13;;;;;;;;;;5081009;28;20019;-87
2023/01/09 05:16:16;;;;;;;2.30;1.45;;;;;;;;;;5085344;28;20023;-86
2023/01/09 05:18:42;;;;;;;5.45;1.67;;;;;;;;;;5080343;28;20080;-85
2023/01/09 05:21:09;;;;;;;4.40;1.55;;;;;;;;;;5082212;28;20024;-86
2023/01/09 05:23:34;;;;;;;2.08;1.27;;;;;;;;;;5078481;28;20388;-86
2023/01/09 05:25:59;;;;;;;1.13;1.02;;;;;;;;;;5084043;28;20039;-86
2023/01/09 05:28:25;;;;;;;2.53;1.85;;;;;;;;;;5082813;28;20047;-90
2023/01/09 05:30:50;;;;;;;2.20;1.73;;;;;;;;;;5108473;28;20104;-89
2023/01/09 05:33:16;;;;;;;3.08;1.83;;;;;;;;;;5104982;28;20031;-88
2023/01/09 05:35:41;;;;;;;1.33;1.23;;;;;;;;;;5102440;28;20055;-89
2023/01/09 05:38:07;;;;;;;2.03;1.45;;;;;;;;;;5082160;28;20035;-89
2023/01/09 05:40:32;;;;;;;2.22;1.92;;;;;;;;;;5108087;28;20051;-89
2023/01/09 05:42:57;;;;;;;1.65;1.55;;;;;;;;;;5077270;28;20031;-88
2023/01/09 05:45:23;;;;;;;2.58;2.10;;;;;;;;;;5116843;28;20128;-88
2023/01/09 05:47:48;;;;;;;1.80;1.52;;;;;;;;;;5088421;28;21392;-89
2023/01/09 05:50:14;;;;;;;1.80;1.65;;;;;;;;;;5087476;28;20567;-88
2023/01/09 05:52:39;;;;;;;2.55;1.98;;;;;;;;;;5081572;28;20487;-88
2023/01/09 05:55:06;;;;;;;1.40;1.30;;;;;;;;;;5084144;28;20020;-89
2023/01/09 05:57:32;;;;;;;1.95;1.52;;;;;;;;;;5101770;28;20081;-88
2023/01/09 05:59:57;;;;;;;1.13;1.08;;;;;;;;;;5110481;28;20429;-89
2023/01/09 06:02:23;;;;;;;3.30;1.48;;;;;;;;;;5078417;28;20119;-88
2023/01/09 06:04:48;;;;;;;2.22;1.55;;;;;;;;;;5101552;28;20036;-88
2023/01/09 06:07:14;;;;;;;1.60;1.17;;;;;;;;;;5087303;28;20020;-88
2023/01/09 06:09:39;;;;;;;2.28;1.63;;;;;;;;;;5088737;28;20139;-88
2023/01/09 06:12:05;;;;;;;1.25;1.15;;;;;;;;;;5088478;28;20065;-89
2023/01/09 06:14:30;;;;;;;0.93;0.88;;;;;;;;;;5078155;28;20016;-89
2023/01/09 06:16:55;;;;;;;1.80;1.70;;;;;;;;;;5074965;28;20465;-89
2023/01/09 06:19:21;;;;;;;5.50;1.38;;;;;;;;;;5106170;28;20441;-88
2023/01/09 06:21:46;;;;;;;2.50;2.25;;;;;;;;;;5105276;28;20075;-89
2023/01/09 06:24:12;;;;;;;0.60;0.60;;;;;;;;;;5102560;28;20031;-90
2023/01/09 06:26:37;;;;;;;2.50;1.90;;;;;;;;;;5086264;28;20020;-90
2023/01/09 06:29:03;;;;;;;2.60;1.83;;;;;;;;;;5087484;28;20048;-90
2023/01/09 06:31:28;;;;;;;1.80;1.70;;;;;;;;;;5101887;28;20032;-89
2023/01/09 06:33:53;;;;;;;2.47;1.23;;;;;;;;;;5101778;28;20080;-89
2023/01/09 06:36:19;;;;;;;0.98;0.98;;;;;;;;;;5082127;28;20117;-89
2023/01/09 06:38:45;;;;;;;1.45;1.13;;;;;;;;;;5084845;28;20032;-89
2023/01/09 06:41:10;;;;;;;2.55;1.73;;;;;;;;;;5086194;28;20039;-90
2023/01/09 06:43:36;;;;;;;3.10;2.25;;;;;;;;;;5081474;28;20024;-89
2023/01/09 06:46:01;;;;;;;6.85;3.72;;;;;;;;;;5084458;28;20036;-89
2023/01/09 06:48:26;;;;;;;1.20;1.17;;;;;;;;;;5103380;28;20024;-88
2023/01/09 06:50:53;;;;;;;2.40;1.77;;;;;;;;;;5086534;28;20027;-88
2023/01/09 06:53:18;;;;;;;2.97;1.70;;;;;;;;;;5075955;28;20031;-86
2023/01/09 06:55:45;;;;;;;2.38;1.25;;;;;;;;;;5083912;28;20020;-88
2023/01/09 06:58:10;;;;;;;3.28;1.42;;;;;;;;;;5078674;28;20031;-89
2023/01/09 07:00:36;;;;;;;2.53;2.13;;;;;;;;;;5082926;28;20027;-88
2023/01/09 07:03:02;;;;;;;2.00;1.80;;;;;;;;;;5083858;28;20024;-89
2023/01/09 07:05:28;;;;;;;0.95;0.95;;;;;;;;;;5085629;28;20035;-90
2023/01/09 07:08:01;;;;;;;2.28;1.63;;;;;;;;;;5085271;28;20115;-89
2023/01/09 07:10:26;;;;;;;3.58;1.80;;;;;;;;;;5103071;28;20020;-89
2023/01/09 07:12:52;;;;;;;3.20;1.88;;;;;;;;;;5085385;28;20034;-89
2023/01/09 07:15:18;;;;;;;2.08;1.90;;;;;;;;;;5082209;28;20021;-89
2023/01/09 07:17:53;;;;;;;5.38;2.55;;;;;;;;;;5084888;28;20020;-89
2023/01/09 07:20:19;;;;;;;2.85;2.38;;;;;;;;;;5079272;28;20104;-88
2023/01/09 07:22:45;;;;;;;1.80;1.67;;;;;;;;;;5086057;28;20424;-88
2023/01/09 07:25:10;;;;;;;8.02;4.35;;;;;;;;;;5090376;28;20026;-87
2023/01/09 07:27:36;;;;;;;5.38;3.15;;;;;;;;;;5103524;28;20027;-91
2023/01/09 07:30:03;;;;;;;8.93;5.88;;;;;;;;;;5112109;28;20503;-87
2023/01/09 07:32:28;;;;;;;7.97;4.80;;;;;;;;;;5089508;28;20483;-88
2023/01/09 07:34:53;;;;;;;5.57;4.00;;;;;;;;;;5109268;28;20108;-88
2023/01/09 07:37:19;;;;;;;2.78;2.53;;;;;;;;;;5103059;28;20077;-89
2023/01/09 07:39:44;;;;;;;4.22;2.90;;;;;;;;;;5118543;27;20035;-89
2023/01/09 07:42:10;;;;;;;11.70;4.80;;;;;;;;;;5099769;28;20049;-89
2023/01/09 07:44:36;;;;;;;5.72;2.80;;;;;;;;;;5086571;28;20027;-88
2023/01/09 07:47:01;;;;;;;8.77;4.40;;;;;;;;;;5086215;28;20089;-88
2023/01/09 07:49:27;;;;;;;6.35;5.13;;;;;;;;;;5088640;28;20023;-86
2023/01/09 07:51:52;;;;;;;2.22;2.13;;;;;;;;;;5089827;28;20062;-88
2023/01/09 07:54:18;;;;;;;6.90;4.18;;;;;;;;;;5088695;28;20454;-89
2023/01/09 07:56:43;;;;;;;4.72;2.95;;;;;;;;;;5115190;27;20063;-87
2023/01/09 07:59:09;;;;;;;4.38;2.65;;;;;;;;;;5117610;27;20068;-89
2023/01/09 08:01:34;;;;;;;5.75;3.45;;;;;;;;;;5100957;28;20445;-87
2023/01/09 08:04:00;;;;;;;4.70;3.72;;;;;;;;;;5102266;28;20031;-91
2023/01/09 08:06:25;;;;;;;5.13;2.20;;;;;;;;;;5104885;28;20446;-89
2023/01/09 08:08:50;;;;;;;3.35;2.83;;;;;;;;;;5090259;28;20421;-88
2023/01/09 08:11:54;;;;;;;4.88;3.22;;;;;;;;;;5107143;28;20379;-92
2023/01/09 08:14:19;;;;;;;7.57;2.72;;;;;;;;;;5086535;28;20528;-89
2023/01/09 08:16:48;;;;;;;5.78;3.05;;;;;;;;;;5103962;28;20015;-87
2023/01/09 08:19:24;;;;;;;1.88;1.67;;;;;;;;;;5086901;28;20020;-88
2023/01/09 08:21:52;;;;;;;4.97;3.55;;;;;;;;;;5080845;28;20035;-91
2023/01/09 08:24:31;;;;;;;5.90;4.13;;;;;;;;;;5081470;28;20042;-89
2023/01/09 08:27:16;;;;;;;;;;;;;;;;;;;;;
2023/01/09 08:29:44;;;;;;;7.22;5.57;;;;;;;;;;5101123;28;20039;-91
2023/01/09 08:32:15;;;;;;;3.90;2.90;;;;;;;;;;5087207;28;20039;-88
2023/01/09 08:34:47;;;;;;;1.75;1.50;;;;;;;;;;5080622;28;20444;-90
2023/01/09 08:37:38;;;;;;;;;;;;;;;;;;;;;
2023/01/09 08:40:20;;;;;;;5.65;2.97;;;;;;;;;;5095797;28;20125;-90
2023/01/09 08:49:03;;;;;;;4.57;2.60;;;;;;;;;;5103009;28;20031;-90
2023/01/09 08:51:33;;;;;;;4.88;3.53;;;;;;;;;;5094605;28;20035;-89
2023/01/09 08:54:24;;;;;;;5.38;4.05;;;;;;;;;;5077573;28;20475;-91
2023/01/09 08:57:01;;;;;;;3.65;3.10;;;;;;;;;;5096971;28;20031;-89
2023/01/09 08:59:29;;;;;;;3.72;3.40;;;;;;;;;;5084532;28;20023;-89
2023/01/09 09:02:20;;;;;;;3.53;2.88;;;;;;;;;;5086820;28;20114;-90
2023/01/09 09:04:51;;;;;;;4.20;3.17;;;;;;;;;;5084309;28;20077;-91
2023/01/09 09:07:25;;;;;;;10.93;2.90;;;;;;;;;;5072912;28;20020;-90
2023/01/09 09:10:06;;;;;;;4.35;2.97;;;;;;;;;;5086655;28;20460;-88
2023/01/09 09:12:37;;;;;;;3.38;2.80;;;;;;;;;;5102424;28;20028;-89
2023/01/09 09:15:11;;;;;;;7.28;3.50;;;;;;;;;;5077481;28;20055;-90
2023/01/09 09:17:39;;;;;;;5.82;3.00;;;;;;;;;;5100167;28;20032;-90
2023/01/09 09:20:05;;;;;;;3.85;2.90;;;;;;;;;;5098541;28;20050;-90
2023/01/09 09:22:31;;;;;;;3.72;2.90;;;;;;;;;;5100210;28;20031;-90
2023/01/09 09:24:57;;;;;;;4.95;2.88;;;;;;;;;;5101670;28;20020;-87
2023/01/09 09:27:22;;;;;;;5.38;3.45;;;;;;;;;;5083529;28;20031;-90
2023/01/09 09:29:48;;;;;;;6.65;4.28;;;;;;;;;;5086541;28;20527;-92
2023/01/09 09:32:13;;;;;;;3.60;3.28;;;;;;;;;;5082418;28;20047;-92
2023/01/09 09:34:39;;;;;;;8.82;5.63;;;;;;;;;;5102919;28;20028;-91
2023/01/09 09:37:04;;;;;;;6.25;4.72;;;;;;;;;;5103161;28;20102;-87
2023/01/09 09:39:29;;;;;;;6.00;3.60;;;;;;;;;;5104971;28;20019;-91
2023/01/09 09:45:06;;;;;;;5.97;4.57;;;;;;;;;;5107980;28;20038;-92
2023/01/09 09:47:42;;;;;;;7.95;4.75;;;;;;;;;;5074585;28;20421;-90
2023/01/09 09:50:39;;;;;;;5.55;4.07;;;;;;;;;;5076923;28;20175;-90
2023/01/09 09:53:28;;;;;;;5.32;3.25;;;;;;;;;;5084889;28;20024;-90
2023/01/09 09:55:56;;;;;;;8.93;4.17;;;;;;;;;;5076056;28;20073;-89
2023/01/09 09:58:38;;;;;;;4.45;2.65;;;;;;;;;;5102323;28;20268;-91
2023/01/09 10:01:05;;;;;;;5.50;3.50;;;;;;;;;;5117403;28;20425;-91
2023/01/09 10:03:37;;;;;;;5.72;3.85;;;;;;;;;;5081731;28;20024;-89
2023/01/09 10:06:27;;;;;;;6.32;3.40;;;;;;;;;;5093169;28;20024;-90
2023/01/09 10:09:15;;;;;;;7.40;2.92;;;;;;;;;;5082845;28;20110;-88
2023/01/09 10:12:11;;;;;;;5.30;3.78;;;;;;;;;;5075940;28;20069;-88
2023/01/09 10:14:38;;;;;;;9.90;3.53;;;;;;;;;;5097490;28;20016;-90
2023/01/09 10:17:38;;;;;;;7.53;3.50;;;;;;;;;;5077849;28;20162;-89
2023/01/09 10:20:33;;;;;;;9.35;4.30;;;;;;;;;;5058395;28;20033;-90
2023/01/09 10:23:08;;;;;;;9.18;4.80;;;;;;;;;;5105703;28;20296;-89
2023/01/09 10:25:43;;;;;;;7.00;4.03;;;;;;;;;;5082763;28;20021;-89
2023/01/09 10:28:31;;;;;;;7.03;3.50;;;;;;;;;;5079479;28;20101;-90
2023/01/09 10:31:08;;;;;;;4.93;4.38;;;;;;;;;;5103308;28;20020;-89
2023/01/09 10:33:57;;;;;;;4.45;2.40;;;;;;;;;;5099077;28;20110;-90
2023/01/09 10:36:47;;;;;;;4.57;3.35;;;;;;;;;;5091980;28;20039;-92
2023/01/09 10:39:23;;;;;;;4.70;2.53;;;;;;;;;;5097192;28;20027;-90
2023/01/09 10:42:12;;;;;;;4.85;2.20;;;;;;;;;;5089767;28;20027;-87
2023/01/09 10:44:56;;;;;;;6.38;3.72;;;;;;;;;;5081999;28;20032;-89
2023/01/09 10:47:31;;;;;;;6.45;5.10;;;;;;;;;;5089054;28;20020;-90
2023/01/09 10:49:58;;;;;;;3.95;3.38;;;;;;;;;;5105827;28;20612;-90
2023/01/09 10:52:38;;;;;;;4.80;3.08;;;;;;;;;;5085011;28;20055;-91
2023/01/09 10:55:22;;;;;;;5.07;3.70;;;;;;;;;;5101541;28;20026;-91
2023/01/09 10:57:56;;;;;;;2.70;2.03;;;;;;;;;;5085937;28;20030;-88
2023/01/09 11:00:23;;;;;;;4.30;2.70;;;;;;;;;;5082192;28;20027;-90
2023/01/09 11:02:50;;;;;;;6.75;4.03;;;;;;;;;;5082946;28;20533;-90
2023/01/09 11:05:25;;;;;;;8.15;4.38;;;;;;;;;;5109436;28;20028;-87
2023/01/09 11:08:03;;;;;;;5.53;3.17;;;;;;;;;;5106216;28;20090;-88
2023/01/09 11:10:52;;;;;;;8.30;5.70;;;;;;;;;;5102206;28;20023;-88
2023/01/09 11:13:20;;;;;;;8.13;5.10;;;;;;;;;;5085481;28;20024;-88
2023/01/09 11:16:09;;;;;;;6.53;3.58;;;;;;;;;;5088155;28;20020;-87
2023/01/09 11:18:46;;;;;;;10.73;4.20;;;;;;;;;;5121928;27;20078;-90
2023/01/09 11:21:30;;;;;;;5.95;4.03;;;;;;;;;;5086967;28;20027;-89
2023/01/09 11:23:56;;;;;;;8.45;4.03;;;;;;;;;;5082881;28;20501;-89
2023/01/09 11:26:26;;;;;;;6.15;3.63;;;;;;;;;;5088914;28;20031;-89
2023/01/09 11:29:18;;;;;;;6.05;4.45;;;;;;;;;;5085689;28;20039;-89
2023/01/09 11:31:55;;;;;;;6.90;4.18;;;;;;;;;;5084476;28;20471;-88
2023/01/09 11:34:24;;;;;;;5.63;3.60;;;;;;;;;;5079087;28;20134;-88
2023/01/09 11:36:51;;;;;;;5.97;3.78;;;;;;;;;;5105130;28;20489;-88
2023/01/09 11:39:29;;;;;;;8.43;4.68;;;;;;;;;;5100695;28;20027;-89
2023/01/09 11:41:57;;;;;;;3.78;2.85;;;;;;;;;;5105350;28;20084;-89
2023/01/09 11:44:23;;;;;;;6.28;4.40;;;;;;;;;;5087163;28;20452;-88
2023/01/09 11:46:49;;;;;;;8.93;4.00;;;;;;;;;;5105757;28;20043;-87
2023/01/09 11:49:14;;;;;;;4.50;2.88;;;;;;;;;;5104053;28;20084;-88
2023/01/09 11:51:41;;;;;;;8.50;4.32;;;;;;;;;;5108373;28;20088;-89
2023/01/09 11:54:24;;;;;;;7.35;3.67;;;;;;;;;;5111624;28;20032;-90
2023/01/09 11:56:51;;;;;;;6.30;3.25;;;;;;;;;;5084247;28;20032;-89
2023/01/09 11:59:20;;;;;;;13.93;4.10;;;;;;;;;;5084942;28;20023;-89
2023/01/09 12:02:16;;;;;;;6.03;3.60;;;;;;;;;;5086873;28;20024;-89
2023/01/09 12:04:58;;;;;;;8.18;3.65;;;;;;;;;;5104480;28;20053;-88
2023/01/09 12:07:35;;;;;;;4.32;2.72;;;;;;;;;;5087478;28;20031;-88
2023/01/09 12:10:24;;;;;;;9.93;4.32;;;;;;;;;;5091594;28;20036;-89
2023/01/09 12:13:04;;;;;;;6.80;3.17;;;;;;;;;;5072483;28;20035;-89
2023/01/09 12:15:53;;;;;;;4.05;3.55;;;;;;;;;;5107342;28;20051;-90
2023/01/09 12:18:34;;;;;;;6.25;3.88;;;;;;;;;;5082896;28;20020;-90
2023/01/09 12:21:11;;;;;;;6.15;3.30;;;;;;;;;;5110491;28;20023;-90
2023/01/09 12:24:10;;;;;;;3.35;2.53;;;;;;;;;;5081173;28;20024;-87
2023/01/09 12:26:38;;;;;;;8.70;3.60;;;;;;;;;;5102823;28;20024;-89
2023/01/09 12:29:31;;;;;;;8.50;3.63;;;;;;;;;;5074792;28;20055;-89
2023/01/09 12:32:08;;;;;;;6.03;2.55;;;;;;;;;;5078172;28;20024;-90
2023/01/09 12:34:46;;;;;;;4.25;3.05;;;;;;;;;;5093239;28;20024;-90
2023/01/09 12:37:51;;;;;;;5.82;3.10;;;;;;;;;;5120475;27;20031;-89
2023/01/09 12:40:39;;;;;;;4.28;3.00;;;;;;;;;;5105158;28;20026;-88
2023/01/09 12:43:19;;;;;;;5.82;3.22;;;;;;;;;;5082562;28;20057;-89
2023/01/09 12:46:06;;;;;;;6.40;2.88;;;;;;;;;;5123180;27;20040;-90
2023/01/09 12:48:43;;;;;;;7.78;2.97;;;;;;;;;;5103044;28;20039;-90
2023/01/09 12:51:32;;;;;;;7.70;3.75;;;;;;;;;;5110089;28;20047;-91
2023/01/09 12:54:27;;;;;;;7.68;4.47;;;;;;;;;;5079574;28;20011;-90
2023/01/09 12:57:25;;;;;;;6.68;4.22;;;;;;;;;;5104394;28;20092;-89
2023/01/09 12:59:57;;;;;;;4.38;3.10;;;;;;;;;;5102177;28;20036;-89
2023/01/09 13:02:38;;;;;;;23.40;4.65;;;;;;;;;;5099578;28;20465;-88
2023/01/09 13:05:25;;;;;;;5.70;2.92;;;;;;;;;;5108853;28;20032;-88
2023/01/09 13:07:52;;;;;;;5.90;4.10;;;;;;;;;;5082573;28;20027;-90
2023/01/09 13:10:20;;;;;;;7.68;4.28;;;;;;;;;;5100773;28;20107;-87
2023/01/09 13:12:47;;;;;;;5.25;3.60;;;;;;;;;;5084077;28;20081;-90
2023/01/09 13:15:25;;;;;;;5.45;4.25;;;;;;;;;;5098607;28;20045;-89
2023/01/09 13:17:54;;;;;;;5.55;3.58;;;;;;;;;;5083063;28;20491;-90
2023/01/09 13:20:24;;;;;;;6.57;4.07;;;;;;;;;;5086292;28;20027;-90
2023/01/09 13:22:51;;;;;;;;;;;;;;;;;;5103954;28;20028;-89
2023/01/09 13:25:31;;;;;;;5.15;3.60;;;;;;;;;;5100319;28;19922;-87
2023/01/09 13:28:11;;;;;;;7.38;4.75;;;;;;;;;;5082663;28;20024;-90
2023/01/09 13:30:49;;;;;;;5.97;3.53;;;;;;;;;;5103396;28;20028;-88
2023/01/09 13:33:23;;;;;;;4.97;3.33;;;;;;;;;;5088697;28;20094;-89
2023/01/09 13:35:51;;;;;;;5.70;3.38;;;;;;;;;;5084985;28;20043;-88
2023/01/09 13:38:20;;;;;;;3.83;2.95;;;;;;;;;;5082798;28;20486;-89
2023/01/09 13:40:46;;;;;;;4.82;3.92;;;;;;;;;;5080766;28;20023;-88
2023/01/09 13:43:13;;;;;;;10.52;4.38;;;;;;;;;;5097732;28;20073;-88
2023/01/09 13:45:39;;;;;;;6.13;3.17;;;;;;;;;;5100684;28;20027;-89
2023/01/09 13:48:12;;;;;;;3.83;2.38;;;;;;;;;;5099435;28;20114;-87
2023/01/09 13:50:39;;;;;;;5.40;3.35;;;;;;;;;;5104492;28;20035;-88
2023/01/09 13:53:17;;;;;;;4.90;2.28;;;;;;;;;;5091939;28;20038;-89
2023/01/09 13:56:04;;;;;;;6.15;4.13;;;;;;;;;;5108686;28;20471;-88
2023/01/09 13:58:57;;;;;;;5.97;3.55;;;;;;;;;;5082438;28;20499;-89
2023/01/09 14:01:38;;;;;;;5.32;2.92;;;;;;;;;;5092518;28;20044;-88
2023/01/09 14:04:20;;;;;;;4.97;2.92;;;;;;;;;;5099436;28;20102;-87
2023/01/09 14:07:18;;;;;;;5.35;3.13;;;;;;;;;;5084129;28;20027;-88
2023/01/09 14:09:59;;;;;;;6.97;3.17;;;;;;;;;;5060572;28;20422;-87
2023/01/09 14:12:26;;;;;;;4.13;2.58;;;;;;;;;;5097602;28;20035;-86
2023/01/09 14:14:54;;;;;;;6.63;3.97;;;;;;;;;;5086269;28;20384;-87
2023/01/09 14:17:35;;;;;;;6.75;4.95;;;;;;;;;;5109897;28;20019;-87
2023/01/09 14:20:05;;;;;;;9.55;5.05;;;;;;;;;;5088927;28;20027;-91
2023/01/09 14:22:32;;;;;;;;;;;;;;;;;;5085534;28;20024;-86
2023/01/09 14:25:14;;;;;;;7.38;4.80;;;;;;;;;;5084374;28;20299;-89
2023/01/09 14:27:58;;;;;;;7.78;5.28;;;;;;;;;;5102972;28;20059;-89
2023/01/09 14:30:27;;;;;;;6.93;4.47;;;;;;;;;;5088565;28;20063;-87
2023/01/09 14:33:01;;;;;;;6.88;4.68;;;;;;;;;;5084568;28;20024;-88
2023/01/09 14:35:51;;;;;;;6.13;3.67;;;;;;;;;;5080783;28;20179;-88
2023/01/09 14:38:41;;;;;;;7.53;4.80;;;;;;;;;;5098389;28;20024;-88
2023/01/09 14:44:35;;;;;;;5.15;3.78;;;;;;;;;;5101375;28;20506;-90
2023/01/09 14:47:22;;;;;;;5.63;3.78;;;;;;;;;;5102173;28;20472;-88
2023/01/09 14:49:54;;;;;;;10.82;6.88;;;;;;;;;;5107702;28;20417;-88
2023/01/09 14:52:29;;;;;;;8.65;7.47;;;;;;;;;;5080639;28;20471;-87
2023/01/09 14:54:59;;;;;;;8.52;3.95;;;;;;;;;;5104287;28;20089;-88
2023/01/09 14:57:35;;;;;;;;;;;;;;;;;;5088941;28;20044;-88
2023/01/09 15:00:14;;;;;;;6.70;4.63;;;;;;;;;;5081183;28;20355;-86
2023/01/09 15:02:41;;;;;;;5.07;4.20;;;;;;;;;;5108009;28;20463;-88
2023/01/09 15:05:10;;;;;;;8.65;4.97;;;;;;;;;;5085498;28;20050;-88
2023/01/09 15:07:43;;;;;;;8.23;4.68;;;;;;;;;;5103619;28;20058;-88
2023/01/09 15:10:19;;;;;;;7.55;5.35;;;;;;;;;;5106400;28;20019;-89
2023/01/09 15:12:47;;;;;;;9.95;5.82;;;;;;;;;;5079364;28;20027;-88
2023/01/09 15:15:14;;;;;;;12.73;8.10;;;;;;;;;;5105382;28;20016;-89
2023/01/09 15:17:42;;;;;;;13.25;8.52;;;;;;;;;;5100807;28;20028;-87
2023/01/09 15:20:17;;;;;;;11.68;6.20;;;;;;;;;;5102809;28;20024;-88
2023/01/09 15:22:48;;;;;;;13.15;6.60;;;;;;;;;;5105833;28;20471;-87
2023/01/09 15:25:30;;;;;;;16.13;8.32;;;;;;;;;;5084324;28;20069;-89
2023/01/09 15:28:00;;;;;;;7.13;5.47;;;;;;;;;;5085164;28;20474;-89
2023/01/09 15:30:35;;;;;;;12.43;6.55;;;;;;;;;;5084595;28;20035;-88
2023/01/09 15:33:07;;;;;;;7.43;4.70;;;;;;;;;;5090728;28;20027;-88